RJSARJSF

Guest
Details From RJSA - AOMORI
To RJSF - Fukushima
Flight Number -
Tags generated
Created
Modified
Stats Distance 211 nm / 391 km
Max Altitude 22,000 ft / 6,706 m
Waypoints 3
Social Downloads 0
Likes 0
Share VATSIM

Download

Looking for another format? Having issues loading an existing format? Contact us
Advertisement - Login to hide

Notes

Basic altitude profile: - Ascent Rate: 2500ft/min - Ascent Speed: 250kts - Cruise Altitude: 35000ft - Cruise Speed: 420kts - Descent Rate: 1500ft/min - Descent Speed: 250kts Options: - Use NATs: yes - Use PACOTS: yes - Use low airways: yes - Use high airways: yes

Route

RJSA HANKA RJSF

ID Type Via Altitude Latitude Longitude Leg Dist Tot Dist Heading (true) Name
O RJSA APT - 0 ft / 0 m 40.73327˚ 140.68859˚ - 0 nm - AOMORI
HANKA FIX - 22,000 ft / 6,706 m 39.01832˚ 140.56133˚ 103 nm 103 nm 183° / 183° -
O RJSF APT - 0 ft / 0 m 37.22743˚ 140.42797˚ 107 nm 210 nm 183° / 183° Fukushima

Altitude Profile

Advertisement - Login to hide

Weather


0- 5 10 15 20 25 30 35+ Temperature / ° C

Clouds and Precipitation
Forecast for 2018-05-23 00:00 UTC. Updated 4 hours ago

Ground ~20,000 ft ~40,000 ft Winds

RJSA

Details ICAO RJSA (AOJ)
Name AOMORI
Region Japan
Timezone Asia/Tokyo (UTC+9.0)
Stats Elevation 664 ft / 202 m (AMSL)
Location 40.733272° 140.688594°
Runways 1
Magnetic Variation 8.959° W

METAR

RJSA 230300Z 22012KT CAVOK 22/06 Q1006

Decode

TAF

TAF TAF RJSA 222314Z 2300/2406 21008KT 9999 FEW030 BECMG 2304/2306 03005KT TEMPO 2315/2400 3000 -SHRA BR FEW002 BKN005 BKN008 BECMG 2400/2403 26010KT

Decode

Departure Runways

ID Width Length Bearing (true) Bearing (mag) Surface Threshold Offset Overrun Length
06 200 ft / 61 m 9,838 ft / 2,999 m 51.79° 60.75° Asphalt 0 ft / 0 m 200 ft / 61 m
24 200 ft / 61 m 9,838 ft / 2,999 m 231.81° 240.77° Asphalt 0 ft / 0 m 200 ft / 61 m

RJSF

Details ICAO RJSF (FKS)
Name Fukushima
Region Japan
Timezone Asia/Tokyo (UTC+9.0)
Stats Elevation 1,220 ft / 372 m (AMSL)
Location 37.227429° 140.427974°
Runways 1
Magnetic Variation 7.892° W

METAR

RJSF 230300Z 17012KT 9999 FEW030 SCT140 BKN160 19/10 Q1010

Decode

TAF

TAF RJSF 222305Z 2300/2406 18010KT 9999 FEW020 SCT030 TEMPO 2310/2315 4000 -RA BR FEW005 BKN008 BKN015 BECMG 2315/2318 01005KT TEMPO 2315/2400 1500 SHRA BR FEW001 BKN003 BKN005 BECMG 2400/2403 34015KT

Decode

Destination Runways

ID Width Length Bearing (true) Bearing (mag) Surface Threshold Offset Overrun Length
01 197 ft / 60 m 8,219 ft / 2,505 m 2.19° 10.08° Asphalt 0 ft / 0 m 197 ft / 60 m
19 197 ft / 60 m 8,219 ft / 2,505 m 182.19° 190.08° Asphalt 0 ft / 0 m 197 ft / 60 m

Approach Navaids

Runway Type Ident Frequency Range Bearing (true) Bearing (mag) Slope Elevation
01 Localiser IFK 110.50 MHz 18 nm / 33 km 2.19° 10.08° - 1,220 ft / 372 m (AMSL)
01 Glidescope IFK 110.50 MHz 10 nm / 19 km 2.19° 10.08° 3.00° 1,220 ft / 372 m (AMSL)
01 DME IFK 110.50 MHz 18 nm / 33 km - - - 1,223 ft / 373 m (AMSL)